Time;durP1;ratioP1;P1;durP2;ratioP2;P2;SDS_P1;SDS_P2;PMS_P1;PMS_P2;Temp;Humidity;BMP_temperature;BMP_pressure;BME280_temperature;BME280_humidity;BME280_pressure;Samples;Min_cycle;Max_cycle;Signal;HPM_P1;HPM_P2
2022/08/05 00:00:17;;;;;;;4.95;1.40;;;18.40;99.90;;;;;;6181166;23;20024;-80
2022/08/05 00:02:43;;;;;;;3.63;1.15;;;18.40;99.90;;;;;;6155527;23;20017;-80
2022/08/05 00:05:09;;;;;;;4.55;1.20;;;18.40;99.90;;;;;;6154257;23;20028;-80
2022/08/05 00:07:35;;;;;;;4.25;1.85;;;18.40;99.90;;;;;;6155813;23;20013;-80
2022/08/05 00:10:00;;;;;;;5.28;1.23;;;18.40;99.90;;;;;;6154679;23;20457;-80
2022/08/05 00:12:26;;;;;;;7.38;1.35;;;18.30;99.90;;;;;;6156028;23;20430;-80
2022/08/05 00:14:52;;;;;;;3.35;1.35;;;18.40;99.90;;;;;;6181255;23;20063;-80
2022/08/05 00:17:17;;;;;;;4.47;1.30;;;18.40;99.90;;;;;;6179467;23;20516;-79
2022/08/05 00:19:43;;;;;;;3.35;0.90;;;18.30;99.90;;;;;;6152295;23;20021;-80
2022/08/05 00:22:08;;;;;;;4.95;0.75;;;18.40;99.90;;;;;;6155982;23;20025;-80
2022/08/05 00:24:34;;;;;;;5.05;0.93;;;18.30;99.90;;;;;;6155202;23;20104;-80
2022/08/05 00:27:00;;;;;;;4.28;0.88;;;18.40;99.90;;;;;;6181668;23;20021;-80
2022/08/05 00:29:26;;;;;;;3.15;1.08;;;18.40;99.90;;;;;;6178866;23;20083;-80
2022/08/05 00:31:53;;;;;;;5.78;0.88;;;18.40;99.90;;;;;;6180700;23;20017;-79
2022/08/05 00:34:19;;;;;;;4.70;1.60;;;18.40;99.90;;;;;;6181761;23;20020;-80
2022/08/05 00:36:44;;;;;;;3.45;1.10;;;18.50;99.90;;;;;;6154796;23;20016;-80
2022/08/05 00:39:11;;;;;;;4.38;1.40;;;18.50;99.90;;;;;;6180787;23;20120;-80
2022/08/05 00:41:36;;;;;;;7.88;1.08;;;18.40;99.90;;;;;;6153975;23;20450;-81
2022/08/05 00:44:02;;;;;;;4.43;1.30;;;18.50;99.90;;;;;;6155095;23;20044;-81
2022/08/05 00:46:28;;;;;;;5.07;1.30;;;18.50;99.90;;;;;;6179638;23;20112;-81
2022/08/05 00:48:54;;;;;;;6.68;1.40;;;18.50;99.90;;;;;;6181541;23;20099;-81
2022/08/05 00:51:20;;;;;;;4.50;1.73;;;18.50;99.90;;;;;;6181542;23;20013;-81
2022/08/05 00:53:46;;;;;;;5.80;1.67;;;18.50;99.90;;;;;;6179920;23;20020;-80
2022/08/05 00:56:13;;;;;;;4.35;1.30;;;18.50;99.90;;;;;;6181185;23;20020;-81
2022/08/05 00:58:39;;;;;;;6.50;1.15;;;18.40;99.90;;;;;;6180277;23;20335;-81
2022/08/05 01:01:05;;;;;;;4.78;1.27;;;18.50;99.90;;;;;;6152528;23;20028;-81
2022/08/05 01:03:30;;;;;;;5.60;1.20;;;18.40;99.90;;;;;;6178545;23;20023;-80
2022/08/05 01:05:56;;;;;;;4.45;1.02;;;18.50;99.90;;;;;;6180104;23;20045;-81
2022/08/05 01:08:22;;;;;;;7.40;2.05;;;18.50;99.90;;;;;;6154250;23;20024;-81
2022/08/05 01:10:50;;;;;;;4.20;1.20;;;18.50;99.90;;;;;;6179124;23;20056;-81
2022/08/05 01:13:20;;;;;;;5.60;1.20;;;18.50;99.90;;;;;;6152850;23;20643;-81
2022/08/05 01:15:58;;;;;;;5.75;1.38;;;18.50;99.90;;;;;;6154667;23;20021;-80
2022/08/05 01:18:31;;;;;;;6.53;1.42;;;18.50;99.90;;;;;;6179975;23;20336;-81
2022/08/05 01:21:12;;;;;;;3.83;1.00;;;18.50;99.90;;;;;;6178504;23;20012;-81
2022/08/05 01:24:05;;;;;;;3.47;1.00;;;18.50;99.90;;;;;;6181224;23;20027;-81
2022/08/05 01:26:38;;;;;;;4.65;0.95;;;18.60;99.90;;;;;;6179912;23;20009;-80
2022/08/05 01:29:19;;;;;;;4.72;1.25;;;18.60;99.90;;;;;;6154181;23;20173;-80
2022/08/05 01:31:50;;;;;;;3.63;1.40;;;18.50;99.90;;;;;;6176912;23;20013;-81
2022/08/05 01:34:38;;;;;;;4.68;1.63;;;18.50;99.90;;;;;;6153160;23;20013;-81
2022/08/05 01:37:15;;;;;;;7.13;1.40;;;18.50;99.90;;;;;;6177761;23;20025;-80
2022/08/05 01:39:45;;;;;;;3.78;0.98;;;18.50;99.90;;;;;;6129263;23;20579;-80
2022/08/05 01:42:13;;;;;;;4.53;1.73;;;18.50;99.90;;;;;;6178053;23;20013;-81
2022/08/05 01:44:39;;;;;;;8.05;1.65;;;18.50;99.90;;;;;;6177779;23;20020;-81
2022/08/05 01:47:06;;;;;;;4.72;1.45;;;18.50;99.90;;;;;;6129953;23;20095;-80
2022/08/05 01:49:33;;;;;;;4.65;1.20;;;18.50;99.90;;;;;;6178308;23;20099;-81
2022/08/05 01:52:01;;;;;;;7.60;1.48;;;18.40;99.90;;;;;;6153873;23;20013;-80
2022/08/05 01:54:45;;;;;;;4.57;1.20;;;18.50;99.90;;;;;;6179369;23;20013;-81
2022/08/05 01:57:13;;;;;;;4.13;1.20;;;18.40;99.90;;;;;;6153067;23;20334;-80
2022/08/05 01:59:40;;;;;;;6.40;1.40;;;18.50;99.90;;;;;;6152832;23;20020;-80
2022/08/05 02:02:07;;;;;;;4.68;1.10;;;18.40;99.90;;;;;;6178063;23;20021;-80
2022/08/05 02:04:36;;;;;;;2.95;1.08;;;18.50;99.90;;;;;;6177873;23;20504;-81
2022/08/05 02:07:02;;;;;;;5.25;1.70;;;18.40;99.90;;;;;;6179443;23;20501;-81
2022/08/05 02:09:28;;;;;;;4.13;1.10;;;18.40;99.90;;;;;;6179619;23;20108;-80
2022/08/05 02:12:03;;;;;;;4.60;1.20;;;18.40;99.90;;;;;;6153186;23;20362;-80
2022/08/05 02:14:32;;;;;;;3.10;0.98;;;18.40;99.90;;;;;;6179800;23;20023;-80
2022/08/05 02:17:05;;;;;;;2.95;1.58;;;18.40;99.90;;;;;;6154435;23;20021;-80
2022/08/05 02:19:42;;;;;;;3.72;1.05;;;18.40;99.90;;;;;;6152274;23;20017;-80
2022/08/05 02:22:37;;;;;;;5.40;1.33;;;18.40;99.90;;;;;;6178502;23;20044;-80
2022/08/05 02:25:23;;;;;;;4.43;1.23;;;18.40;99.90;;;;;;6153939;23;20028;-81
2022/08/05 02:27:49;;;;;;;;;;;18.30;99.90;;;;;;6179667;23;20017;-80
2022/08/05 02:30:16;;;;;;;4.72;1.58;;;18.30;99.90;;;;;;6176017;23;19920;-80
2022/08/05 02:32:48;;;;;;;5.32;1.67;;;18.30;99.90;;;;;;6178762;23;20013;-80
2022/08/05 02:35:18;;;;;;;8.10;2.00;;;18.30;99.90;;;;;;6180026;23;20036;-80
2022/08/05 02:37:45;;;;;;;5.22;2.00;;;18.30;99.90;;;;;;6179134;23;20044;-80
2022/08/05 02:40:12;;;;;;;4.78;1.45;;;18.30;99.90;;;;;;6178315;23;20021;-80
2022/08/05 02:42:38;;;;;;;4.70;1.60;;;18.20;99.90;;;;;;6153131;23;20350;-80
2022/08/05 02:45:05;;;;;;;4.43;1.35;;;18.20;99.90;;;;;;6179747;23;20405;-80
2022/08/05 02:47:33;;;;;;;3.80;1.40;;;18.20;99.90;;;;;;6153350;23;20442;-80
2022/08/05 02:50:00;;;;;;;5.32;1.98;;;18.10;99.90;;;;;;6177963;23;20019;-81
2022/08/05 02:52:27;;;;;;;5.43;1.50;;;18.10;99.90;;;;;;6179818;23;20009;-80
2022/08/05 02:54:54;;;;;;;7.70;2.55;;;18.20;99.90;;;;;;6152786;23;20389;-80
2022/08/05 02:57:21;;;;;;;7.43;1.90;;;18.10;99.90;;;;;;6152192;23;20017;-80
2022/08/05 02:59:49;;;;;;;6.55;2.35;;;18.10;99.90;;;;;;6176149;23;20135;-80
2022/08/05 03:02:19;;;;;;;5.00;1.67;;;18.10;99.90;;;;;;6176476;23;20031;-80
2022/08/05 03:04:45;;;;;;;5.38;2.08;;;18.00;99.90;;;;;;6153142;23;20045;-80
2022/08/05 03:07:12;;;;;;;5.97;2.50;;;18.00;99.90;;;;;;6179258;23;20055;-80
2022/08/05 03:09:40;;;;;;;4.22;1.65;;;18.00;99.90;;;;;;6175815;23;20044;-80
2022/08/05 03:12:07;;;;;;;8.88;2.28;;;18.00;99.90;;;;;;6151483;23;20405;-80
2022/08/05 03:14:32;;;;;;;5.93;2.20;;;17.90;99.90;;;;;;6179482;23;20045;-80
2022/08/05 03:16:58;;;;;;;4.53;1.95;;;17.90;99.90;;;;;;6178644;23;20021;-80
2022/08/05 03:19:24;;;;;;;8.25;2.92;;;17.90;99.90;;;;;;6152427;23;20044;-80
2022/08/05 03:21:49;;;;;;;6.93;2.65;;;17.90;99.90;;;;;;6151908;23;20055;-81
2022/08/05 03:24:19;;;;;;;6.15;2.10;;;17.90;99.90;;;;;;6152101;23;20024;-80
2022/08/05 03:26:45;;;;;;;5.18;2.63;;;17.90;99.90;;;;;;6154750;23;20027;-80
2022/08/05 03:29:11;;;;;;;5.30;2.10;;;17.90;99.90;;;;;;6181340;23;20017;-80
2022/08/05 03:31:37;;;;;;;5.03;2.38;;;17.90;99.90;;;;;;6177662;23;20461;-80
2022/08/05 03:34:03;;;;;;;6.38;1.85;;;17.80;99.90;;;;;;6153004;23;20017;-81
2022/08/05 03:36:30;;;;;;;4.97;2.25;;;17.80;99.90;;;;;;6180789;23;20023;-81
2022/08/05 03:38:56;;;;;;;7.68;2.55;;;17.80;99.90;;;;;;6178806;23;20017;-80
2022/08/05 03:41:21;;;;;;;8.18;2.75;;;17.80;99.90;;;;;;6180617;23;20630;-81
2022/08/05 03:43:47;;;;;;;6.80;2.10;;;17.80;99.90;;;;;;6154939;23;20025;-80
2022/08/05 03:46:13;;;;;;;7.05;2.40;;;17.80;99.90;;;;;;6178729;23;20021;-80
2022/08/05 03:48:38;;;;;;;7.28;2.53;;;17.70;99.90;;;;;;6179101;23;20406;-81
2022/08/05 03:51:12;;;;;;;5.55;2.08;;;17.80;99.90;;;;;;6154119;23;20048;-81
2022/08/05 03:53:44;;;;;;;4.57;2.20;;;17.80;99.90;;;;;;6154002;23;20496;-81
2022/08/05 03:56:25;;;;;;;6.53;2.60;;;17.80;99.90;;;;;;6179486;23;20056;-81
2022/08/05 03:58:54;;;;;;;4.85;2.17;;;17.80;99.90;;;;;;6153617;23;20017;-81
2022/08/05 04:01:21;;;;;;;5.88;3.13;;;17.70;99.90;;;;;;6178346;23;20533;-81
2022/08/05 04:03:49;;;;;;;4.97;2.42;;;17.70;99.90;;;;;;6151850;23;20023;-80
2022/08/05 04:06:16;;;;;;;9.18;2.90;;;17.70;99.90;;;;;;6178289;23;20053;-81
2022/08/05 04:08:42;;;;;;;4.88;2.90;;;17.70;99.90;;;;;;6178579;23;20342;-80
2022/08/05 04:11:08;;;;;;;6.95;2.60;;;17.70;99.90;;;;;;6152835;23;20024;-81
2022/08/05 04:13:38;;;;;;;8.23;2.80;;;17.60;99.90;;;;;;6180843;23;20136;-80
2022/08/05 04:16:05;;;;;;;8.43;3.00;;;17.70;99.90;;;;;;6178575;23;20370;-80
2022/08/05 04:18:31;;;;;;;6.70;3.20;;;17.70;99.90;;;;;;6177442;23;20013;-81
2022/08/05 04:20:57;;;;;;;8.23;3.70;;;17.50;99.90;;;;;;6178365;23;20016;-80
2022/08/05 04:23:24;;;;;;;4.93;2.55;;;17.50;99.90;;;;;;6177359;23;20020;-80
2022/08/05 04:25:50;;;;;;;6.28;2.80;;;17.60;99.90;;;;;;6177586;23;20017;-80
2022/08/05 04:28:17;;;;;;;4.53;2.33;;;17.60;99.90;;;;;;6180425;23;20032;-81
2022/08/05 04:30:42;;;;;;;4.65;2.50;;;17.60;99.90;;;;;;6175056;23;20020;-80
2022/08/05 04:33:08;;;;;;;6.30;2.97;;;17.60;99.90;;;;;;6178736;23;20013;-80
2022/08/05 04:35:33;;;;;;;6.15;2.90;;;17.60;99.90;;;;;;6177464;23;20565;-81
2022/08/05 04:37:59;;;;;;;6.43;3.13;;;17.60;99.90;;;;;;6151461;23;20152;-80
2022/08/05 04:40:24;;;;;;;6.68;2.72;;;17.60;99.90;;;;;;6178655;23;20389;-80
2022/08/05 04:42:50;;;;;;;3.70;2.60;;;17.60;99.90;;;;;;6153546;23;20025;-80
2022/08/05 04:45:16;;;;;;;6.80;2.97;;;17.60;99.90;;;;;;6178047;23;20350;-80
2022/08/05 04:47:41;;;;;;;6.55;2.80;;;17.60;99.90;;;;;;6151622;23;20361;-80
2022/08/05 04:50:07;;;;;;;7.35;2.47;;;17.60;99.90;;;;;;6150860;23;20024;-80
2022/08/05 04:52:33;;;;;;;6.15;2.55;;;17.60;99.90;;;;;;6127919;23;20096;-80
2022/08/05 04:54:59;;;;;;;2.83;2.40;;;17.60;99.90;;;;;;6178439;23;20048;-80
2022/08/05 04:57:25;;;;;;;7.75;2.70;;;17.60;99.90;;;;;;6178063;23;20115;-80
2022/08/05 04:59:50;;;;;;;6.00;2.60;;;17.60;99.90;;;;;;6151883;23;20012;-81
2022/08/05 05:02:16;;;;;;;7.93;2.63;;;17.60;99.90;;;;;;6156920;23;20079;-81
2022/08/05 05:04:42;;;;;;;6.45;2.65;;;17.60;99.90;;;;;;6184347;23;20092;-80
2022/08/05 05:07:07;;;;;;;5.07;3.17;;;17.70;99.90;;;;;;6183348;23;20013;-81
2022/08/05 05:09:33;;;;;;;4.13;2.42;;;17.70;99.90;;;;;;6184188;23;20027;-81
2022/08/05 05:11:58;;;;;;;3.60;2.30;;;17.70;99.90;;;;;;6179606;23;20009;-79
2022/08/05 05:14:24;;;;;;;5.25;2.47;;;17.70;99.90;;;;;;6181803;23;20060;-79
2022/08/05 05:16:49;;;;;;;4.90;2.60;;;17.80;99.90;;;;;;6182554;23;20017;-81
2022/08/05 05:19:15;;;;;;;7.07;2.90;;;17.80;99.90;;;;;;6156223;23;20025;-81
2022/08/05 05:21:40;;;;;;;8.20;2.33;;;17.80;99.90;;;;;;6182814;23;20048;-80
2022/08/05 05:24:06;;;;;;;7.15;2.72;;;17.80;99.90;;;;;;6181443;23;20095;-81
2022/08/05 05:26:32;;;;;;;7.82;2.42;;;17.90;99.90;;;;;;6185377;23;20028;-81
2022/08/05 05:28:57;;;;;;;5.50;3.42;;;17.90;99.90;;;;;;6184823;23;20104;-82
2022/08/05 05:31:23;;;;;;;10.00;3.13;;;17.90;99.90;;;;;;6157095;23;20044;-81
2022/08/05 05:33:48;;;;;;;8.13;3.10;;;17.90;99.90;;;;;;6185173;23;20017;-82
2022/08/05 05:36:14;;;;;;;5.78;2.38;;;17.90;99.90;;;;;;6184995;23;20070;-82
2022/08/05 05:38:39;;;;;;;3.53;2.22;;;17.90;99.90;;;;;;6158590;23;20021;-82
2022/08/05 05:41:05;;;;;;;6.40;2.72;;;18.00;99.90;;;;;;6184543;23;20084;-81
2022/08/05 05:43:30;;;;;;;7.03;2.90;;;18.00;99.90;;;;;;6156166;23;20013;-82
2022/08/05 05:45:56;;;;;;;6.90;2.67;;;18.10;99.90;;;;;;6157496;23;20017;-82
2022/08/05 05:48:21;;;;;;;5.95;2.55;;;18.20;99.90;;;;;;6184691;23;20016;-83
2022/08/05 05:50:47;;;;;;;6.82;2.60;;;18.20;99.90;;;;;;6132512;23;20017;-82
2022/08/05 05:53:14;;;;;;;4.50;2.78;;;18.20;99.90;;;;;;6183180;23;20242;-82
2022/08/05 05:55:39;;;;;;;6.07;2.28;;;18.30;99.90;;;;;;6181204;23;20016;-83
2022/08/05 05:58:05;;;;;;;4.88;2.30;;;18.30;99.90;;;;;;6182632;23;20024;-82
2022/08/05 06:00:30;;;;;;;10.65;2.70;;;18.50;99.90;;;;;;6154178;23;20025;-83
2022/08/05 06:02:56;;;;;;;4.68;2.55;;;18.60;99.90;;;;;;6181017;23;20021;-83
2022/08/05 06:05:22;;;;;;;6.13;2.13;;;18.70;99.90;;;;;;6133311;23;20047;-81
2022/08/05 06:07:48;;;;;;;4.13;2.30;;;18.90;99.90;;;;;;6183947;23;20017;-82
2022/08/05 06:10:14;;;;;;;4.97;1.98;;;19.00;99.90;;;;;;6154567;23;20595;-81
2022/08/05 06:12:40;;;;;;;4.38;1.40;;;19.80;99.90;;;;;;6156772;23;20024;-82
2022/08/05 06:15:06;;;;;;;4.90;1.52;;;20.70;99.90;;;;;;6157709;23;20052;-82
2022/08/05 06:17:32;;;;;;;5.05;1.63;;;21.40;99.90;;;;;;6183705;23;20013;-82
2022/08/05 06:19:58;;;;;;;4.53;1.58;;;22.10;99.90;;;;;;6181595;23;20028;-82
2022/08/05 06:22:26;;;;;;;5.28;1.80;;;22.40;99.90;;;;;;6185212;23;20016;-81
2022/08/05 06:24:52;;;;;;;4.80;1.65;;;22.50;99.90;;;;;;6155527;23;20013;-81
2022/08/05 06:27:18;;;;;;;3.40;1.35;;;22.40;99.90;;;;;;6155623;23;20782;-81
2022/08/05 06:29:44;;;;;;;4.07;1.40;;;22.10;99.90;;;;;;6181628;23;20017;-81
2022/08/05 06:32:10;;;;;;;10.25;2.00;;;22.10;99.90;;;;;;6154974;23;20055;-81
2022/08/05 06:34:36;;;;;;;5.15;1.10;;;22.10;99.90;;;;;;6182011;23;20017;-82
2022/08/05 06:37:01;;;;;;;3.42;1.30;;;22.40;99.90;;;;;;6156208;23;20027;-81
2022/08/05 06:39:27;;;;;;;2.67;0.82;;;22.70;99.90;;;;;;6154790;23;20101;-82
2022/08/05 06:41:54;;;;;;;3.17;0.90;;;23.00;99.90;;;;;;6156149;23;20025;-81
2022/08/05 06:44:20;;;;;;;2.85;0.85;;;23.30;99.90;;;;;;6183712;23;20017;-81
2022/08/05 06:46:45;;;;;;;5.88;1.15;;;23.60;99.90;;;;;;6155244;23;20056;-80
2022/08/05 06:49:11;;;;;;;2.65;1.00;;;23.70;99.90;;;;;;6156028;23;20122;-81
2022/08/05 06:51:36;;;;;;;4.97;1.42;;;23.80;99.90;;;;;;6182885;23;20095;-81
2022/08/05 06:54:03;;;;;;;2.72;0.93;;;23.90;99.90;;;;;;6182735;23;20055;-81
2022/08/05 06:56:30;;;;;;;3.58;1.20;;;24.10;99.90;;;;;;6180782;23;20009;-81
2022/08/05 06:58:56;;;;;;;2.08;1.38;;;24.40;99.90;;;;;;6180917;23;20500;-81
2022/08/05 07:01:22;;;;;;;5.75;0.80;;;24.30;99.90;;;;;;6157106;23;20021;-81
2022/08/05 07:03:47;;;;;;;2.65;0.82;;;24.20;99.90;;;;;;6185623;23;20017;-81
2022/08/05 07:06:13;;;;;;;3.05;0.70;;;24.30;99.90;;;;;;6184518;23;20513;-81
2022/08/05 07:08:38;;;;;;;1.83;0.60;;;24.40;99.90;;;;;;6184103;23;20016;-81
2022/08/05 07:11:04;;;;;;;3.88;0.65;;;24.60;99.90;;;;;;6182645;23;20137;-81
2022/08/05 07:19:02;;;;;;;1.60;0.40;;;25.20;99.90;;;;;;6156157;23;20167;-81
2022/08/05 07:21:28;;;;;;;5.70;1.67;;;25.40;99.90;;;;;;6158135;23;20273;-80
2022/08/05 07:23:53;;;;;;;2.08;0.50;;;25.40;99.90;;;;;;6183841;23;20021;-81
2022/08/05 07:26:19;;;;;;;4.00;0.60;;;25.30;99.90;;;;;;6157157;23;20100;-81
2022/08/05 07:28:44;;;;;;;4.65;0.75;;;25.10;99.90;;;;;;6157178;23;20031;-81
2022/08/05 07:31:10;;;;;;;3.45;0.55;;;24.90;99.90;;;;;;6183069;23;20021;-81
2022/08/05 07:33:35;;;;;;;2.38;0.40;;;24.50;99.90;;;;;;6184227;23;20152;-81
2022/08/05 07:36:01;;;;;;;2.17;0.85;;;24.40;99.90;;;;;;6183981;23;20040;-81
2022/08/05 07:38:27;;;;;;;2.90;0.50;;;24.20;99.90;;;;;;6185312;23;20013;-80
2022/08/05 07:40:52;;;;;;;2.47;0.40;;;24.00;99.90;;;;;;6155929;23;20044;-81
2022/08/05 07:43:18;;;;;;;2.67;0.50;;;23.90;99.90;;;;;;6158681;23;20071;-81
2022/08/05 07:45:43;;;;;;;1.25;0.30;;;23.50;99.90;;;;;;6184609;23;20023;-81
2022/08/05 07:48:10;;;;;;;3.40;0.70;;;23.30;99.90;;;;;;6158202;23;20436;-80
2022/08/05 07:50:36;;;;;;;2.10;0.40;;;23.20;99.90;;;;;;6181850;23;20100;-81
2022/08/05 07:53:01;;;;;;;3.08;0.38;;;23.00;99.90;;;;;;6185155;23;20040;-81
2022/08/05 07:55:27;;;;;;;2.67;0.80;;;22.90;99.90;;;;;;6182999;23;20035;-81
2022/08/05 07:57:52;;;;;;;3.70;0.47;;;22.70;99.90;;;;;;6183692;23;20040;-81
2022/08/05 08:00:18;;;;;;;3.15;0.40;;;22.70;99.90;;;;;;6154772;23;20021;-80
2022/08/05 08:02:44;;;;;;;2.33;0.50;;;22.70;99.90;;;;;;6158199;23;20027;-81
2022/08/05 08:05:10;;;;;;;5.07;0.40;;;23.20;99.90;;;;;;6183649;23;20017;-81
2022/08/05 08:07:36;;;;;;;1.75;0.38;;;23.60;99.90;;;;;;6157987;23;20020;-80
2022/08/05 08:10:02;;;;;;;1.77;0.40;;;24.00;99.90;;;;;;6181261;23;20017;-82
2022/08/05 08:12:28;;;;;;;2.35;0.43;;;24.40;99.90;;;;;;6182754;23;20017;-80
2022/08/05 08:14:54;;;;;;;1.95;0.38;;;24.70;99.90;;;;;;6157728;23;20159;-81
2022/08/05 08:17:19;;;;;;;6.43;0.30;;;25.00;99.90;;;;;;6158455;23;20021;-81
2022/08/05 08:19:45;;;;;;;2.40;0.35;;;25.00;99.90;;;;;;6182426;23;20264;-81
2022/08/05 08:22:11;;;;;;;1.02;0.40;;;24.70;99.90;;;;;;6185092;23;20019;-80
2022/08/05 08:24:37;;;;;;;1.00;0.30;;;24.50;99.90;;;;;;6155368;23;20013;-81
2022/08/05 08:27:03;;;;;;;5.72;0.57;;;24.30;99.90;;;;;;6184216;23;20013;-81
2022/08/05 08:29:29;;;;;;;2.70;0.40;;;24.40;99.90;;;;;;6182479;23;20020;-81
2022/08/05 08:31:55;;;;;;;2.30;0.40;;;24.40;99.90;;;;;;6182849;23;20024;-80
2022/08/05 08:34:23;;;;;;;1.90;0.40;;;24.70;99.90;;;;;;6180289;23;20335;-82
2022/08/05 08:36:50;;;;;;;2.97;0.65;;;25.00;99.90;;;;;;6159735;23;20024;-81
2022/08/05 08:39:17;;;;;;;2.33;0.35;;;25.50;99.90;;;;;;6158018;23;20017;-82
2022/08/05 08:41:46;;;;;;;3.13;0.30;;;25.90;99.90;;;;;;6185372;23;20013;-81
2022/08/05 08:44:13;;;;;;;2.35;0.68;;;26.10;99.90;;;;;;6182952;23;20017;-82
2022/08/05 08:46:40;;;;;;;2.05;0.40;;;26.00;99.90;;;;;;6182109;23;20021;-81
2022/08/05 08:49:07;;;;;;;2.38;0.60;;;25.70;99.90;;;;;;6150493;23;20021;-82
2022/08/05 08:51:35;;;;;;;0.98;0.40;;;25.90;99.90;;;;;;6157874;23;20024;-81
2022/08/05 08:54:01;;;;;;;1.05;0.20;;;25.70;99.90;;;;;;6183726;23;20028;-81
2022/08/05 08:56:27;;;;;;;1.25;0.50;;;25.50;99.90;;;;;;6183459;23;20585;-81
2022/08/05 08:58:54;;;;;;;1.23;0.40;;;25.50;99.90;;;;;;6181259;23;20088;-81
2022/08/05 09:01:19;;;;;;;2.03;0.30;;;25.50;99.90;;;;;;6157393;23;20016;-81
2022/08/05 09:03:52;;;;;;;2.42;0.60;;;25.30;99.90;;;;;;6180765;23;20067;-81
2022/08/05 09:06:18;;;;;;;2.47;0.30;;;25.30;99.90;;;;;;6157749;23;20024;-81
2022/08/05 09:08:44;;;;;;;2.20;0.40;;;25.30;99.90;;;;;;6182710;23;20068;-81
2022/08/05 09:11:12;;;;;;;4.63;0.52;;;25.20;99.90;;;;;;6155513;23;20013;-83
2022/08/05 09:13:37;;;;;;;2.55;0.30;;;25.10;99.90;;;;;;6182223;23;20044;-83
2022/08/05 09:16:03;;;;;;;2.30;0.55;;;25.10;99.90;;;;;;6182062;23;20063;-83
2022/08/05 09:18:29;;;;;;;2.90;0.28;;;25.00;99.90;;;;;;6181999;23;20017;-83
2022/08/05 09:20:55;;;;;;;2.50;0.20;;;25.00;99.90;;;;;;6182152;23;20084;-82
2022/08/05 09:23:20;;;;;;;2.08;0.30;;;24.90;99.90;;;;;;6183255;23;20397;-83
2022/08/05 09:25:49;;;;;;;0.75;0.30;;;24.90;99.90;;;;;;6153090;23;20019;-83
2022/08/05 09:28:23;;;;;;;8.73;1.02;;;25.00;99.90;;;;;;6183305;23;20033;-82
2022/08/05 09:31:07;;;;;;;1.00;0.28;;;25.30;99.90;;;;;;6153950;23;20029;-83
2022/08/05 09:33:49;;;;;;;2.38;0.30;;;25.30;98.90;;;;;;6156240;23;20020;-83
2022/08/05 09:36:15;;;;;;;2.28;0.30;;;25.40;99.00;;;;;;6179235;23;20023;-83
2022/08/05 09:39:02;;;;;;;2.53;0.30;;;25.60;98.10;;;;;;6154662;23;20470;-84
2022/08/05 09:41:27;;;;;;;1.52;0.30;;;25.90;97.60;;;;;;6180203;23;20017;-82
2022/08/05 09:43:53;;;;;;;4.53;0.35;;;26.00;97.90;;;;;;6186863;23;20400;-83
2022/08/05 09:46:27;;;;;;;2.13;0.20;;;26.10;98.00;;;;;;6159261;23;20025;-83
2022/08/05 09:48:54;;;;;;;2.85;0.80;;;26.20;97.80;;;;;;6183398;23;20031;-82
2022/08/05 09:51:34;;;;;;;3.03;0.30;;;26.40;97.40;;;;;;6159457;23;20155;-83
2022/08/05 09:54:00;;;;;;;2.92;0.40;;;26.40;97.60;;;;;;6160111;23;20013;-83
2022/08/05 09:56:32;;;;;;;2.72;0.40;;;26.40;97.70;;;;;;6185663;23;20013;-82
2022/08/05 09:59:04;;;;;;;4.60;0.30;;;26.20;97.40;;;;;;6157988;23;20024;-84
2022/08/05 10:01:35;;;;;;;5.15;0.52;;;26.00;96.00;;;;;;6157268;23;20016;-84
2022/08/05 10:04:02;;;;;;;1.52;0.30;;;25.90;95.80;;;;;;6185259;23;20021;-83
2022/08/05 10:06:27;;;;;;;0.80;0.30;;;26.00;96.20;;;;;;6159474;23;20095;-83
2022/08/05 10:08:56;;;;;;;4.05;0.50;;;26.00;95.80;;;;;;6185805;23;20320;-84
2022/08/05 10:11:24;;;;;;;4.32;0.98;;;26.10;95.90;;;;;;6155603;23;20028;-80
2022/08/05 10:13:51;;;;;;;4.13;0.32;;;26.20;94.60;;;;;;6184831;23;20075;-81
2022/08/05 10:16:30;;;;;;;0.57;0.20;;;26.30;94.20;;;;;;6157224;23;20016;-82
2022/08/05 10:18:55;;;;;;;0.98;0.30;;;26.40;94.40;;;;;;6181262;23;20017;-81
2022/08/05 10:21:21;;;;;;;0.32;0.20;;;26.40;93.90;;;;;;6155497;23;20021;-83
2022/08/05 10:23:47;;;;;;;2.42;0.20;;;26.40;94.40;;;;;;6181708;23;20016;-82
2022/08/05 10:26:13;;;;;;;0.88;0.28;;;26.40;95.00;;;;;;6148401;23;20029;-84
2022/08/05 10:28:40;;;;;;;0.60;0.20;;;26.40;94.40;;;;;;6147447;23;20429;-82
2022/08/05 10:31:06;;;;;;;1.48;0.30;;;26.30;94.30;;;;;;6177519;23;20063;-83
2022/08/05 10:33:33;;;;;;;1.83;0.40;;;26.50;94.60;;;;;;6151024;23;20013;-83
2022/08/05 10:40:05;;;;;;;1.85;0.22;;;26.40;90.60;;;;;;6118837;23;20021;-82
2022/08/05 10:42:37;;;;;;;3.92;0.28;;;26.30;91.80;;;;;;6178785;23;20027;-82
2022/08/05 10:45:06;;;;;;;9.90;0.38;;;26.20;90.20;;;;;;6154457;23;20017;-82
2022/08/05 10:47:35;;;;;;;0.65;0.25;;;26.30;90.80;;;;;;6185454;23;20029;-82
2022/08/05 10:50:12;;;;;;;2.03;0.32;;;26.50;91.00;;;;;;6154893;23;20036;-82
2022/08/05 10:52:43;;;;;;;1.85;0.20;;;26.40;90.90;;;;;;6182973;23;20017;-82
2022/08/05 10:55:12;;;;;;;0.68;0.20;;;26.40;90.40;;;;;;6155183;23;20030;-82
2022/08/05 10:57:42;;;;;;;0.88;0.10;;;26.40;90.70;;;;;;6180255;23;20103;-82
2022/08/05 11:00:31;;;;;;;0.80;0.10;;;26.40;89.50;;;;;;6126868;23;20028;-83
2022/08/05 11:03:10;;;;;;;1.08;0.43;;;26.30;86.40;;;;;;6151813;23;20016;-83
2022/08/05 11:05:39;;;;;;;7.55;0.20;;;26.20;86.30;;;;;;6153477;23;20128;-83
2022/08/05 11:08:08;;;;;;;0.55;0.17;;;26.10;85.30;;;;;;6153738;23;20025;-83
2022/08/05 11:10:36;;;;;;;1.27;0.32;;;26.30;86.50;;;;;;6175638;23;20017;-83
2022/08/05 11:13:11;;;;;;;2.47;0.10;;;26.40;84.60;;;;;;6177593;23;20060;-84
2022/08/05 11:15:42;;;;;;;;;;;26.30;83.90;;;;;;6152861;23;20023;-82
2022/08/05 11:18:13;;;;;;;2.78;0.10;;;26.30;84.30;;;;;;6178618;23;19922;-82
2022/08/05 11:20:44;;;;;;;2.38;0.10;;;26.10;83.40;;;;;;6152285;23;20024;-83
2022/08/05 11:23:35;;;;;;;0.45;0.10;;;25.90;83.30;;;;;;6153988;23;20023;-83
2022/08/05 11:26:08;;;;;;;1.88;0.20;;;25.50;84.30;;;;;;6153560;23;20017;-81
2022/08/05 11:28:33;;;;;;;3.08;0.20;;;25.60;84.70;;;;;;6153987;23;20028;-83
2022/08/05 11:31:02;;;;;;;2.33;0.30;;;25.60;84.10;;;;;;6180668;23;20146;-82
2022/08/05 11:33:47;;;;;;;3.90;0.20;;;25.40;83.60;;;;;;6182218;23;20080;-82
2022/08/05 11:36:16;;;;;;;1.33;0.20;;;25.30;83.70;;;;;;6160337;23;20387;-81
2022/08/05 11:38:42;;;;;;;2.15;0.10;;;25.10;85.00;;;;;;6181548;23;20446;-83
2022/08/05 11:41:14;;;;;;;1.70;0.20;;;25.00;85.70;;;;;;6181702;23;20048;-81
2022/08/05 11:44:05;;;;;;;2.38;0.20;;;25.20;86.80;;;;;;6181664;23;20793;-82
2022/08/05 11:46:30;;;;;;;3.78;0.43;;;25.30;86.00;;;;;;6180826;23;20052;-82
2022/08/05 11:48:57;;;;;;;1.38;0.52;;;25.30;86.60;;;;;;6154515;23;20476;-82
2022/08/05 11:51:25;;;;;;;3.10;0.30;;;25.20;87.00;;;;;;6181190;23;20024;-82
2022/08/05 11:53:51;;;;;;;1.63;0.15;;;25.30;88.10;;;;;;6179195;23;20013;-80
2022/08/05 11:56:17;;;;;;;1.35;0.10;;;25.20;87.80;;;;;;6182200;23;20021;-81
2022/08/05 11:58:45;;;;;;;1.42;0.10;;;25.20;88.40;;;;;;6180225;23;20020;-81
2022/08/05 12:01:15;;;;;;;0.60;0.10;;;25.10;89.40;;;;;;6181390;23;20690;-81
2022/08/05 12:03:48;;;;;;;6.55;0.28;;;25.10;89.60;;;;;;6180088;23;20044;-82
2022/08/05 12:06:15;;;;;;;2.47;0.20;;;25.00;89.20;;;;;;6177821;23;20112;-83
2022/08/05 12:08:47;;;;;;;3.20;0.20;;;24.80;89.60;;;;;;6156047;23;20036;-82
2022/08/05 12:11:33;;;;;;;0.82;0.10;;;24.60;89.30;;;;;;6153330;23;20025;-82
2022/08/05 12:14:04;;;;;;;0.50;0.28;;;24.40;88.50;;;;;;6179424;23;20024;-82
2022/08/05 12:16:36;;;;;;;2.10;0.20;;;24.10;90.10;;;;;;6179720;23;20009;-84
2022/08/05 12:19:03;;;;;;;1.10;0.30;;;24.10;90.80;;;;;;6180237;23;20031;-83
2022/08/05 12:21:34;;;;;;;5.28;0.30;;;24.10;90.50;;;;;;6178844;23;20664;-83
2022/08/05 12:24:02;;;;;;;2.75;0.20;;;24.10;91.90;;;;;;6181165;23;20067;-82
2022/08/05 12:26:37;;;;;;;4.05;0.10;;;24.30;91.10;;;;;;6180715;23;20362;-84
2022/08/05 12:29:05;;;;;;;1.08;0.10;;;24.20;91.30;;;;;;6155072;23;20013;-81
2022/08/05 12:31:34;;;;;;;0.77;0.10;;;24.10;91.40;;;;;;6178624;23;20024;-80
2022/08/05 12:34:05;;;;;;;0.68;0.10;;;23.90;91.50;;;;;;6153469;23;20024;-79
2022/08/05 12:36:32;;;;;;;0.30;0.10;;;23.90;91.60;;;;;;6179951;23;20013;-82
2022/08/05 12:38:58;;;;;;;1.50;0.30;;;23.80;91.80;;;;;;6178580;23;20020;-80
2022/08/05 12:41:30;;;;;;;4.80;0.57;;;23.80;92.30;;;;;;6178968;23;20478;-81
2022/08/05 12:44:06;;;;;;;2.08;0.30;;;23.90;92.40;;;;;;6179257;23;20028;-81
2022/08/05 12:46:33;;;;;;;2.38;0.38;;;24.10;92.90;;;;;;6178695;23;20024;-83
2022/08/05 12:49:13;;;;;;;1.30;0.47;;;23.90;93.30;;;;;;6154276;23;20021;-81
2022/08/05 12:52:02;;;;;;;0.85;0.10;;;23.90;91.80;;;;;;6177408;23;20085;-81
2022/08/05 12:54:29;;;;;;;1.75;0.10;;;23.70;91.40;;;;;;6179557;23;20013;-81
2022/08/05 12:57:00;;;;;;;2.03;0.28;;;23.60;91.40;;;;;;6180781;23;20027;-81
2022/08/05 12:59:29;;;;;;;1.73;0.10;;;23.60;92.00;;;;;;6176809;23;20013;-81
2022/08/05 13:02:06;;;;;;;1.13;0.20;;;23.60;92.00;;;;;;6154759;23;20021;-81